sensor_id;sensor_type;location;lat;lon;timestamp;pressure;altitude;pressure_sealevel;temperature;humidity
62926;BME280;55732;52.248;-0.844;2023-07-29T00:00:41;99614.26;;;17.34;82.78
62926;BME280;55732;52.248;-0.844;2023-07-29T00:03:08;99615.10;;;17.31;82.63
62926;BME280;55732;52.248;-0.844;2023-07-29T00:05:33;99612.60;;;17.27;82.91
62926;BME280;55732;52.248;-0.844;2023-07-29T00:07:59;99607.41;;;17.24;82.95
62926;BME280;55732;52.248;-0.844;2023-07-29T00:10:25;99611.35;;;17.23;82.97
62926;BME280;55732;52.248;-0.844;2023-07-29T00:12:51;99612.11;;;17.22;83.09
62926;BME280;55732;52.248;-0.844;2023-07-29T00:15:16;99606.81;;;17.22;82.89
62926;BME280;55732;52.248;-0.844;2023-07-29T00:17:42;99609.14;;;17.21;82.85
62926;BME280;55732;52.248;-0.844;2023-07-29T00:20:08;99607.39;;;17.21;82.99
62926;BME280;55732;52.248;-0.844;2023-07-29T00:22:33;99605.30;;;17.20;82.88
62926;BME280;55732;52.248;-0.844;2023-07-29T00:24:59;99604.32;;;17.17;82.89
62926;BME280;55732;52.248;-0.844;2023-07-29T00:27:25;99605.70;;;17.14;82.73
62926;BME280;55732;52.248;-0.844;2023-07-29T00:29:50;99605.12;;;17.12;82.75
62926;BME280;55732;52.248;-0.844;2023-07-29T00:32:16;99604.10;;;17.11;82.62
62926;BME280;55732;52.248;-0.844;2023-07-29T00:34:42;99601.10;;;17.10;82.75
62926;BME280;55732;52.248;-0.844;2023-07-29T00:37:10;99603.98;;;17.09;82.71
62926;BME280;55732;52.248;-0.844;2023-07-29T00:39:36;99599.46;;;17.07;82.56
62926;BME280;55732;52.248;-0.844;2023-07-29T00:42:03;99599.58;;;17.04;82.50
62926;BME280;55732;52.248;-0.844;2023-07-29T00:44:29;99602.77;;;17.00;82.76
62926;BME280;55732;52.248;-0.844;2023-07-29T00:46:57;99601.12;;;16.98;83.03
62926;BME280;55732;52.248;-0.844;2023-07-29T00:49:24;99600.86;;;16.95;82.90
62926;BME280;55732;52.248;-0.844;2023-07-29T00:51:50;99603.02;;;16.94;82.84
62926;BME280;55732;52.248;-0.844;2023-07-29T00:54:15;99607.85;;;16.94;82.86
62926;BME280;55732;52.248;-0.844;2023-07-29T00:56:41;99605.35;;;16.94;83.05
62926;BME280;55732;52.248;-0.844;2023-07-29T00:59:07;99607.86;;;16.93;83.13
62926;BME280;55732;52.248;-0.844;2023-07-29T01:01:33;99609.16;;;16.92;83.14
62926;BME280;55732;52.248;-0.844;2023-07-29T01:03:58;99610.83;;;16.90;83.20
62926;BME280;55732;52.248;-0.844;2023-07-29T01:12:16;99611.64;;;16.84;83.40
62926;BME280;55732;52.248;-0.844;2023-07-29T01:18:08;99599.73;;;16.80;83.58
62926;BME280;55732;52.248;-0.844;2023-07-29T01:20:40;99603.90;;;16.78;83.67
62926;BME280;55732;52.248;-0.844;2023-07-29T01:23:07;99604.88;;;16.76;83.87
62926;BME280;55732;52.248;-0.844;2023-07-29T01:25:32;99601.50;;;16.76;84.08
62926;BME280;55732;52.248;-0.844;2023-07-29T01:27:58;99599.08;;;16.75;84.07
62926;BME280;55732;52.248;-0.844;2023-07-29T01:30:29;99595.23;;;16.73;83.97
62926;BME280;55732;52.248;-0.844;2023-07-29T01:33:07;99590.85;;;16.71;84.22
62926;BME280;55732;52.248;-0.844;2023-07-29T01:35:48;99589.11;;;16.71;84.22
62926;BME280;55732;52.248;-0.844;2023-07-29T01:38:22;99579.73;;;16.65;84.07
62926;BME280;55732;52.248;-0.844;2023-07-29T01:40:50;99579.10;;;16.68;84.21
62926;BME280;55732;52.248;-0.844;2023-07-29T01:43:17;99578.55;;;16.68;84.13
62926;BME280;55732;52.248;-0.844;2023-07-29T01:45:44;99581.42;;;16.67;84.12
62926;BME280;55732;52.248;-0.844;2023-07-29T01:48:10;99583.38;;;16.67;84.21
62926;BME280;55732;52.248;-0.844;2023-07-29T01:50:35;99585.21;;;16.66;84.14
62926;BME280;55732;52.248;-0.844;2023-07-29T01:53:01;99583.34;;;16.64;83.81
62926;BME280;55732;52.248;-0.844;2023-07-29T01:55:26;99578.42;;;16.63;83.98
62926;BME280;55732;52.248;-0.844;2023-07-29T01:57:52;99575.97;;;16.61;84.05
62926;BME280;55732;52.248;-0.844;2023-07-29T02:00:21;99575.83;;;16.60;84.03
62926;BME280;55732;52.248;-0.844;2023-07-29T02:02:46;99574.07;;;16.59;83.99
62926;BME280;55732;52.248;-0.844;2023-07-29T02:05:11;99576.78;;;16.58;83.82
62926;BME280;55732;52.248;-0.844;2023-07-29T02:07:37;99574.12;;;16.58;83.92
62926;BME280;55732;52.248;-0.844;2023-07-29T02:10:02;99578.26;;;16.57;83.71
62926;BME280;55732;52.248;-0.844;2023-07-29T02:12:28;99576.05;;;16.54;83.59
62926;BME280;55732;52.248;-0.844;2023-07-29T02:14:53;99580.73;;;16.53;83.68
62926;BME280;55732;52.248;-0.844;2023-07-29T02:17:19;99576.38;;;16.51;83.65
62926;BME280;55732;52.248;-0.844;2023-07-29T02:19:44;99577.50;;;16.50;83.73
62926;BME280;55732;52.248;-0.844;2023-07-29T02:22:21;99576.88;;;16.48;83.68
62926;BME280;55732;52.248;-0.844;2023-07-29T02:24:49;99571.48;;;16.45;83.51
62926;BME280;55732;52.248;-0.844;2023-07-29T02:27:15;99568.73;;;16.42;83.51
62926;BME280;55732;52.248;-0.844;2023-07-29T02:29:40;99566.73;;;16.39;83.46
62926;BME280;55732;52.248;-0.844;2023-07-29T02:32:05;99567.03;;;16.37;83.24
62926;BME280;55732;52.248;-0.844;2023-07-29T02:34:31;99568.52;;;16.35;83.47
62926;BME280;55732;52.248;-0.844;2023-07-29T02:36:56;99560.39;;;16.34;83.52
62926;BME280;55732;52.248;-0.844;2023-07-29T02:39:22;99560.99;;;16.32;83.54
62926;BME280;55732;52.248;-0.844;2023-07-29T02:41:48;99564.23;;;16.31;83.57
62926;BME280;55732;52.248;-0.844;2023-07-29T02:44:13;99565.50;;;16.30;83.59
62926;BME280;55732;52.248;-0.844;2023-07-29T02:46:39;99562.73;;;16.28;83.59
62926;BME280;55732;52.248;-0.844;2023-07-29T02:49:04;99565.92;;;16.29;83.60
62926;BME280;55732;52.248;-0.844;2023-07-29T02:51:30;99564.26;;;16.26;83.60
62926;BME280;55732;52.248;-0.844;2023-07-29T02:53:56;99558.41;;;16.26;83.74
62926;BME280;55732;52.248;-0.844;2023-07-29T02:56:21;99560.90;;;16.26;83.70
62926;BME280;55732;52.248;-0.844;2023-07-29T02:58:47;99559.04;;;16.24;83.52
62926;BME280;55732;52.248;-0.844;2023-07-29T03:01:12;99561.72;;;16.23;83.63
62926;BME280;55732;52.248;-0.844;2023-07-29T03:03:37;99559.22;;;16.24;83.72
62926;BME280;55732;52.248;-0.844;2023-07-29T03:06:08;99557.14;;;16.22;83.54
62926;BME280;55732;52.248;-0.844;2023-07-29T03:08:34;99562.55;;;16.20;83.75
62926;BME280;55732;52.248;-0.844;2023-07-29T03:11:06;99557.46;;;16.18;84.01
62926;BME280;55732;52.248;-0.844;2023-07-29T03:13:32;99556.75;;;16.18;84.10
62926;BME280;55732;52.248;-0.844;2023-07-29T03:16:13;99552.70;;;16.18;84.17
62926;BME280;55732;52.248;-0.844;2023-07-29T03:18:40;99555.02;;;16.17;84.27
62926;BME280;55732;52.248;-0.844;2023-07-29T03:21:05;99557.59;;;16.16;84.27
62926;BME280;55732;52.248;-0.844;2023-07-29T03:23:31;99555.87;;;16.14;84.34
62926;BME280;55732;52.248;-0.844;2023-07-29T03:26:01;99555.56;;;16.13;84.54
62926;BME280;55732;52.248;-0.844;2023-07-29T03:28:31;99554.93;;;16.11;84.60
62926;BME280;55732;52.248;-0.844;2023-07-29T03:30:58;99552.27;;;16.11;84.66
62926;BME280;55732;52.248;-0.844;2023-07-29T03:33:25;99552.48;;;16.10;84.70
62926;BME280;55732;52.248;-0.844;2023-07-29T03:35:51;99549.88;;;16.09;84.73
62926;BME280;55732;52.248;-0.844;2023-07-29T03:38:16;99556.25;;;16.09;84.79
62926;BME280;55732;52.248;-0.844;2023-07-29T03:40:42;99556.61;;;16.09;84.81
62926;BME280;55732;52.248;-0.844;2023-07-29T03:43:08;99554.90;;;16.07;85.01
62926;BME280;55732;52.248;-0.844;2023-07-29T03:45:34;99556.00;;;16.06;84.88
62926;BME280;55732;52.248;-0.844;2023-07-29T03:48:00;99559.63;;;16.05;84.85
62926;BME280;55732;52.248;-0.844;2023-07-29T03:50:26;99558.98;;;16.04;84.72
62926;BME280;55732;52.248;-0.844;2023-07-29T03:52:52;99554.02;;;16.03;84.83
62926;BME280;55732;52.248;-0.844;2023-07-29T03:55:17;99549.21;;;16.04;84.68
62926;BME280;55732;52.248;-0.844;2023-07-29T03:57:43;99550.30;;;16.03;84.71
62926;BME280;55732;52.248;-0.844;2023-07-29T04:00:08;99559.86;;;16.04;84.72
62926;BME280;55732;52.248;-0.844;2023-07-29T04:02:34;99554.42;;;16.02;84.73
62926;BME280;55732;52.248;-0.844;2023-07-29T04:05:03;99554.23;;;16.03;84.79
62926;BME280;55732;52.248;-0.844;2023-07-29T04:07:28;99555.45;;;16.03;84.70
62926;BME280;55732;52.248;-0.844;2023-07-29T04:09:54;99554.20;;;16.03;84.65
62926;BME280;55732;52.248;-0.844;2023-07-29T04:12:19;99555.26;;;16.04;84.61
62926;BME280;55732;52.248;-0.844;2023-07-29T04:14:47;99557.94;;;16.03;84.63
62926;BME280;55732;52.248;-0.844;2023-07-29T04:17:12;99554.77;;;16.02;84.63
62926;BME280;55732;52.248;-0.844;2023-07-29T04:19:37;99554.27;;;16.02;84.67
62926;BME280;55732;52.248;-0.844;2023-07-29T04:22:03;99554.38;;;15.98;84.64
62926;BME280;55732;52.248;-0.844;2023-07-29T04:24:28;99556.89;;;15.98;84.76
62926;BME280;55732;52.248;-0.844;2023-07-29T04:26:54;99559.12;;;16.00;84.60
62926;BME280;55732;52.248;-0.844;2023-07-29T04:29:19;99555.80;;;15.99;84.58
62926;BME280;55732;52.248;-0.844;2023-07-29T04:31:45;99554.82;;;15.96;84.72
62926;BME280;55732;52.248;-0.844;2023-07-29T04:34:10;99558.58;;;15.96;84.85
62926;BME280;55732;52.248;-0.844;2023-07-29T04:36:35;99556.46;;;15.95;84.89
62926;BME280;55732;52.248;-0.844;2023-07-29T04:39:01;99557.17;;;15.95;84.86
62926;BME280;55732;52.248;-0.844;2023-07-29T04:41:26;99554.50;;;15.95;84.90
62926;BME280;55732;52.248;-0.844;2023-07-29T04:43:52;99557.15;;;15.95;85.06
62926;BME280;55732;52.248;-0.844;2023-07-29T04:46:18;99560.48;;;15.96;85.09
62926;BME280;55732;52.248;-0.844;2023-07-29T04:48:43;99557.45;;;15.97;85.02
62926;BME280;55732;52.248;-0.844;2023-07-29T04:51:08;99558.50;;;15.98;85.04
62926;BME280;55732;52.248;-0.844;2023-07-29T04:53:34;99554.94;;;15.98;84.92
62926;BME280;55732;52.248;-0.844;2023-07-29T04:56:02;99553.38;;;15.97;84.82
62926;BME280;55732;52.248;-0.844;2023-07-29T04:58:27;99555.19;;;15.96;84.98
62926;BME280;55732;52.248;-0.844;2023-07-29T05:00:55;99554.00;;;15.95;85.02
62926;BME280;55732;52.248;-0.844;2023-07-29T05:03:21;99557.25;;;15.94;85.09
62926;BME280;55732;52.248;-0.844;2023-07-29T05:05:46;99563.63;;;15.93;85.09
62926;BME280;55732;52.248;-0.844;2023-07-29T05:08:11;99558.42;;;15.95;85.17
62926;BME280;55732;52.248;-0.844;2023-07-29T05:10:37;99553.02;;;15.97;85.28
62926;BME280;55732;52.248;-0.844;2023-07-29T05:13:02;99554.90;;;15.99;85.26
62926;BME280;55732;52.248;-0.844;2023-07-29T05:15:28;99556.81;;;16.00;85.28
62926;BME280;55732;52.248;-0.844;2023-07-29T05:17:53;99560.33;;;16.01;85.21
62926;BME280;55732;52.248;-0.844;2023-07-29T05:20:19;99565.94;;;16.03;85.21
62926;BME280;55732;52.248;-0.844;2023-07-29T05:22:44;99562.89;;;16.04;85.31
62926;BME280;55732;52.248;-0.844;2023-07-29T05:25:10;99564.42;;;16.05;85.46
62926;BME280;55732;52.248;-0.844;2023-07-29T05:27:35;99568.82;;;16.06;85.27
62926;BME280;55732;52.248;-0.844;2023-07-29T05:30:00;99570.39;;;16.06;85.42
62926;BME280;55732;52.248;-0.844;2023-07-29T05:32:26;99569.95;;;16.09;85.38
62926;BME280;55732;52.248;-0.844;2023-07-29T05:34:51;99565.95;;;16.11;85.41
62926;BME280;55732;52.248;-0.844;2023-07-29T05:37:17;99568.89;;;16.13;85.22
62926;BME280;55732;52.248;-0.844;2023-07-29T05:39:43;99571.83;;;16.15;85.17
62926;BME280;55732;52.248;-0.844;2023-07-29T05:42:08;99573.41;;;16.19;85.24
62926;BME280;55732;52.248;-0.844;2023-07-29T05:44:34;99569.59;;;16.22;85.04
62926;BME280;55732;52.248;-0.844;2023-07-29T05:47:00;99575.71;;;16.24;85.00
62926;BME280;55732;52.248;-0.844;2023-07-29T05:49:25;99577.73;;;16.27;84.98
62926;BME280;55732;52.248;-0.844;2023-07-29T05:51:51;99580.39;;;16.31;84.82
62926;BME280;55732;52.248;-0.844;2023-07-29T05:54:18;99576.41;;;16.33;84.57
62926;BME280;55732;52.248;-0.844;2023-07-29T05:56:43;99574.42;;;16.34;84.43
62926;BME280;55732;52.248;-0.844;2023-07-29T05:59:09;99571.29;;;16.37;84.34
62926;BME280;55732;52.248;-0.844;2023-07-29T06:01:34;99571.12;;;16.41;84.20
62926;BME280;55732;52.248;-0.844;2023-07-29T06:04:00;99575.59;;;16.44;84.00
62926;BME280;55732;52.248;-0.844;2023-07-29T06:06:26;99577.45;;;16.47;84.03
62926;BME280;55732;52.248;-0.844;2023-07-29T06:08:51;99578.34;;;16.51;83.77
62926;BME280;55732;52.248;-0.844;2023-07-29T06:11:17;99580.23;;;16.61;83.59
62926;BME280;55732;52.248;-0.844;2023-07-29T06:13:42;99583.12;;;16.86;83.22
62926;BME280;55732;52.248;-0.844;2023-07-29T06:16:07;99578.28;;;17.43;82.52
62926;BME280;55732;52.248;-0.844;2023-07-29T06:18:33;99578.98;;;17.78;81.31
62926;BME280;55732;52.248;-0.844;2023-07-29T06:20:58;99581.64;;;17.82;80.70
62926;BME280;55732;52.248;-0.844;2023-07-29T06:23:23;99577.50;;;17.91;80.02
62926;BME280;55732;52.248;-0.844;2023-07-29T06:25:49;99574.09;;;17.98;79.73
62926;BME280;55732;52.248;-0.844;2023-07-29T06:28:14;99575.21;;;18.09;79.25
62926;BME280;55732;52.248;-0.844;2023-07-29T06:30:39;99576.98;;;18.23;78.93
62926;BME280;55732;52.248;-0.844;2023-07-29T06:33:05;99572.70;;;18.49;78.44
62926;BME280;55732;52.248;-0.844;2023-07-29T06:35:31;99574.52;;;18.98;77.24
62926;BME280;55732;52.248;-0.844;2023-07-29T06:37:57;99575.46;;;19.86;75.52
62926;BME280;55732;52.248;-0.844;2023-07-29T06:40:22;99574.55;;;20.75;73.02
62926;BME280;55732;52.248;-0.844;2023-07-29T06:42:47;99574.36;;;20.75;71.76
62926;BME280;55732;52.248;-0.844;2023-07-29T06:45:13;99575.39;;;20.79;71.58
62926;BME280;55732;52.248;-0.844;2023-07-29T06:47:38;99572.76;;;20.81;70.95
62926;BME280;55732;52.248;-0.844;2023-07-29T06:50:04;99577.44;;;20.77;70.33
62926;BME280;55732;52.248;-0.844;2023-07-29T06:52:29;99575.33;;;20.65;70.18
62926;BME280;55732;52.248;-0.844;2023-07-29T06:54:55;99575.30;;;20.47;69.94
62926;BME280;55732;52.248;-0.844;2023-07-29T06:57:20;99572.16;;;20.33;70.06
62926;BME280;55732;52.248;-0.844;2023-07-29T06:59:46;99576.64;;;20.24;69.97
62926;BME280;55732;52.248;-0.844;2023-07-29T07:02:11;99576.89;;;20.22;70.19
62926;BME280;55732;52.248;-0.844;2023-07-29T07:04:36;99576.90;;;20.15;69.95
62926;BME280;55732;52.248;-0.844;2023-07-29T07:07:02;99579.27;;;20.17;69.83
62926;BME280;55732;52.248;-0.844;2023-07-29T07:09:27;99581.13;;;20.20;69.44
62926;BME280;55732;52.248;-0.844;2023-07-29T07:11:53;99579.69;;;20.27;69.26
62926;BME280;55732;52.248;-0.844;2023-07-29T07:14:18;99584.38;;;20.16;68.93
62926;BME280;55732;52.248;-0.844;2023-07-29T07:16:43;99586.73;;;20.06;69.02
62926;BME280;55732;52.248;-0.844;2023-07-29T07:19:09;99584.93;;;20.00;69.28
62926;BME280;55732;52.248;-0.844;2023-07-29T07:21:34;99589.39;;;19.94;69.12
62926;BME280;55732;52.248;-0.844;2023-07-29T07:24:00;99591.45;;;19.89;69.40
62926;BME280;55732;52.248;-0.844;2023-07-29T07:26:25;99590.25;;;19.91;69.37
62926;BME280;55732;52.248;-0.844;2023-07-29T07:28:50;99586.20;;;19.90;69.09
62926;BME280;55732;52.248;-0.844;2023-07-29T07:31:17;99585.17;;;19.83;68.88
62926;BME280;55732;52.248;-0.844;2023-07-29T07:33:42;99583.96;;;19.79;68.89
62926;BME280;55732;52.248;-0.844;2023-07-29T07:36:07;99583.62;;;19.82;69.14
62926;BME280;55732;52.248;-0.844;2023-07-29T07:38:33;99581.98;;;19.92;68.72
62926;BME280;55732;52.248;-0.844;2023-07-29T07:40:58;99580.89;;;20.36;67.80
62926;BME280;55732;52.248;-0.844;2023-07-29T07:43:24;99577.94;;;21.77;65.08
62926;BME280;55732;52.248;-0.844;2023-07-29T07:45:50;99577.13;;;22.62;63.15
62926;BME280;55732;52.248;-0.844;2023-07-29T07:48:16;99573.52;;;22.81;62.29
62926;BME280;55732;52.248;-0.844;2023-07-29T07:50:42;99568.92;;;22.90;61.64
62926;BME280;55732;52.248;-0.844;2023-07-29T07:53:08;99570.02;;;23.06;61.57
62926;BME280;55732;52.248;-0.844;2023-07-29T07:55:34;99570.85;;;23.46;60.84
62926;BME280;55732;52.248;-0.844;2023-07-29T07:57:59;99572.55;;;24.27;58.84
62926;BME280;55732;52.248;-0.844;2023-07-29T08:00:24;99567.83;;;24.03;58.53
62926;BME280;55732;52.248;-0.844;2023-07-29T08:02:50;99571.29;;;23.97;58.21
62926;BME280;55732;52.248;-0.844;2023-07-29T08:05:15;99576.19;;;24.21;57.09
62926;BME280;55732;52.248;-0.844;2023-07-29T08:07:40;99572.90;;;24.65;56.27
62926;BME280;55732;52.248;-0.844;2023-07-29T08:10:06;99569.64;;;25.98;54.47
62926;BME280;55732;52.248;-0.844;2023-07-29T08:12:32;99571.40;;;27.45;51.42
62926;BME280;55732;52.248;-0.844;2023-07-29T08:14:58;99570.16;;;28.33;49.41
62926;BME280;55732;52.248;-0.844;2023-07-29T08:17:23;99569.34;;;28.13;48.72
62926;BME280;55732;52.248;-0.844;2023-07-29T08:19:48;99571.98;;;29.52;46.22
62926;BME280;55732;52.248;-0.844;2023-07-29T08:22:14;99571.16;;;30.60;44.55
62926;BME280;55732;52.248;-0.844;2023-07-29T08:24:39;99572.04;;;31.33;43.38
62926;BME280;55732;52.248;-0.844;2023-07-29T08:27:05;99574.71;;;31.84;42.62
62926;BME280;55732;52.248;-0.844;2023-07-29T08:29:31;99577.98;;;31.78;41.39
62926;BME280;55732;52.248;-0.844;2023-07-29T08:31:56;99575.58;;;32.94;39.50
62926;BME280;55732;52.248;-0.844;2023-07-29T08:34:21;99583.02;;;33.33;38.38
62926;BME280;55732;52.248;-0.844;2023-07-29T08:36:47;99580.52;;;32.95;38.52
62926;BME280;55732;52.248;-0.844;2023-07-29T08:39:12;99579.74;;;31.69;39.29
62926;BME280;55732;52.248;-0.844;2023-07-29T08:41:49;99573.83;;;31.56;39.07
62926;BME280;55732;52.248;-0.844;2023-07-29T08:44:22;99573.38;;;32.15;38.24
62926;BME280;55732;52.248;-0.844;2023-07-29T08:46:49;99570.11;;;33.60;36.56
62926;BME280;55732;52.248;-0.844;2023-07-29T08:49:18;99569.17;;;33.40;36.42
62926;BME280;55732;52.248;-0.844;2023-07-29T08:51:48;99566.45;;;33.09;36.76
62926;BME280;55732;52.248;-0.844;2023-07-29T08:54:15;99565.42;;;32.82;36.91
62926;BME280;55732;52.248;-0.844;2023-07-29T08:56:41;99558.83;;;32.39;36.94
62926;BME280;55732;52.248;-0.844;2023-07-29T08:59:08;99563.15;;;33.36;35.70
62926;BME280;55732;52.248;-0.844;2023-07-29T09:01:34;99555.08;;;34.82;34.05
62926;BME280;55732;52.248;-0.844;2023-07-29T09:03:59;99562.34;;;36.08;32.87
62926;BME280;55732;52.248;-0.844;2023-07-29T09:06:26;99563.32;;;35.86;32.57
62926;BME280;55732;52.248;-0.844;2023-07-29T09:08:53;99563.70;;;34.60;33.15
62926;BME280;55732;52.248;-0.844;2023-07-29T09:11:20;99566.60;;;34.37;33.33
62926;BME280;55732;52.248;-0.844;2023-07-29T09:13:45;99575.30;;;33.40;34.27
62926;BME280;55732;52.248;-0.844;2023-07-29T09:16:11;99570.61;;;32.50;35.05
62926;BME280;55732;52.248;-0.844;2023-07-29T09:18:37;99570.88;;;31.65;35.87
62926;BME280;55732;52.248;-0.844;2023-07-29T09:21:03;99567.72;;;30.85;37.16
62926;BME280;55732;52.248;-0.844;2023-07-29T09:23:28;99566.96;;;30.44;37.46
62926;BME280;55732;52.248;-0.844;2023-07-29T09:26:03;99568.46;;;30.09;37.59
62926;BME280;55732;52.248;-0.844;2023-07-29T09:28:34;99568.31;;;29.55;38.07
62926;BME280;55732;52.248;-0.844;2023-07-29T09:31:00;99566.77;;;28.83;38.78
62926;BME280;55732;52.248;-0.844;2023-07-29T09:33:26;99562.19;;;28.80;38.99
62926;BME280;55732;52.248;-0.844;2023-07-29T09:35:51;99565.41;;;29.42;38.41
62926;BME280;55732;52.248;-0.844;2023-07-29T09:38:17;99562.92;;;30.53;37.23
62926;BME280;55732;52.248;-0.844;2023-07-29T09:40:42;99565.79;;;32.78;35.20
62926;BME280;55732;52.248;-0.844;2023-07-29T09:43:10;99565.52;;;34.16;33.81
62926;BME280;55732;52.248;-0.844;2023-07-29T09:45:37;99559.41;;;35.68;31.73
62926;BME280;55732;52.248;-0.844;2023-07-29T09:48:04;99563.86;;;36.90;30.19
62926;BME280;55732;52.248;-0.844;2023-07-29T09:50:34;99562.65;;;36.31;30.51
62926;BME280;55732;52.248;-0.844;2023-07-29T09:52:59;99560.81;;;35.20;31.28
62926;BME280;55732;52.248;-0.844;2023-07-29T09:55:26;99558.10;;;34.49;31.72
62926;BME280;55732;52.248;-0.844;2023-07-29T09:57:59;99557.34;;;33.54;32.37
62926;BME280;55732;52.248;-0.844;2023-07-29T10:00:30;99561.61;;;32.03;33.95
62926;BME280;55732;52.248;-0.844;2023-07-29T10:02:57;99568.27;;;30.76;35.45
62926;BME280;55732;52.248;-0.844;2023-07-29T10:05:25;99575.42;;;29.64;37.04
62926;BME280;55732;52.248;-0.844;2023-07-29T10:07:51;99582.44;;;28.62;38.62
62926;BME280;55732;52.248;-0.844;2023-07-29T10:10:17;99579.05;;;27.67;39.33
62926;BME280;55732;52.248;-0.844;2023-07-29T10:12:42;99586.35;;;26.96;40.81
62926;BME280;55732;52.248;-0.844;2023-07-29T10:15:08;99583.00;;;26.43;42.28
62926;BME280;55732;52.248;-0.844;2023-07-29T10:17:35;99585.52;;;25.92;43.70
62926;BME280;55732;52.248;-0.844;2023-07-29T10:20:03;99591.84;;;25.45;44.58
62926;BME280;55732;52.248;-0.844;2023-07-29T10:22:51;99593.13;;;25.26;45.43
62926;BME280;55732;52.248;-0.844;2023-07-29T10:25:22;99590.31;;;25.62;45.42
62926;BME280;55732;52.248;-0.844;2023-07-29T10:28:01;99594.46;;;25.57;46.16
62926;BME280;55732;52.248;-0.844;2023-07-29T10:30:30;99598.45;;;25.15;46.72
62926;BME280;55732;52.248;-0.844;2023-07-29T10:32:57;99602.45;;;24.60;47.40
62926;BME280;55732;52.248;-0.844;2023-07-29T10:35:23;99619.77;;;24.03;48.07
62926;BME280;55732;52.248;-0.844;2023-07-29T10:37:51;99636.25;;;23.38;49.64
62926;BME280;55732;52.248;-0.844;2023-07-29T10:40:18;99643.88;;;22.70;51.58
62926;BME280;55732;52.248;-0.844;2023-07-29T10:43:24;99642.75;;;22.01;52.75
62926;BME280;55732;52.248;-0.844;2023-07-29T10:45:50;99638.52;;;21.45;55.98
62926;BME280;55732;52.248;-0.844;2023-07-29T10:53:46;99632.58;;;21.52;58.74
62926;BME280;55732;52.248;-0.844;2023-07-29T10:56:12;99623.92;;;21.90;59.11
62926;BME280;55732;52.248;-0.844;2023-07-29T10:58:38;99627.04;;;22.17;59.14
62926;BME280;55732;52.248;-0.844;2023-07-29T11:01:12;99626.67;;;22.42;60.08
62926;BME280;55732;52.248;-0.844;2023-07-29T11:03:38;99626.63;;;22.59;58.80
62926;BME280;55732;52.248;-0.844;2023-07-29T11:06:04;99628.59;;;22.67;58.41
62926;BME280;55732;52.248;-0.844;2023-07-29T11:08:30;99627.89;;;22.76;58.14
62926;BME280;55732;52.248;-0.844;2023-07-29T11:13:26;99621.42;;;22.92;57.98
62926;BME280;55732;52.248;-0.844;2023-07-29T11:15:53;99621.69;;;22.91;57.53
62926;BME280;55732;52.248;-0.844;2023-07-29T11:18:20;99618.39;;;22.97;57.45
62926;BME280;55732;52.248;-0.844;2023-07-29T11:20:46;99608.69;;;22.89;56.26
62926;BME280;55732;52.248;-0.844;2023-07-29T11:23:13;99607.50;;;22.96;56.42
62926;BME280;55732;52.248;-0.844;2023-07-29T11:25:38;99609.74;;;23.16;56.30
62926;BME280;55732;52.248;-0.844;2023-07-29T11:28:04;99609.95;;;23.23;54.86
62926;BME280;55732;52.248;-0.844;2023-07-29T11:30:29;99612.26;;;23.42;53.90
62926;BME280;55732;52.248;-0.844;2023-07-29T11:32:57;99610.69;;;23.54;53.65
62926;BME280;55732;52.248;-0.844;2023-07-29T11:35:23;99605.83;;;23.69;53.88
62926;BME280;55732;52.248;-0.844;2023-07-29T11:37:50;99603.58;;;23.91;53.23
62926;BME280;55732;52.248;-0.844;2023-07-29T11:40:18;99602.42;;;24.02;52.74
62926;BME280;55732;52.248;-0.844;2023-07-29T11:42:45;99599.26;;;24.01;52.17
62926;BME280;55732;52.248;-0.844;2023-07-29T11:45:13;99599.73;;;24.04;51.68
62926;BME280;55732;52.248;-0.844;2023-07-29T11:47:39;99602.63;;;23.94;51.37
62926;BME280;55732;52.248;-0.844;2023-07-29T11:50:06;99606.13;;;23.83;50.68
62926;BME280;55732;52.248;-0.844;2023-07-29T11:52:33;99595.77;;;23.87;50.63
62926;BME280;55732;52.248;-0.844;2023-07-29T11:55:00;99601.70;;;23.97;50.39
62926;BME280;55732;52.248;-0.844;2023-07-29T11:57:27;99600.13;;;23.91;49.79
62926;BME280;55732;52.248;-0.844;2023-07-29T11:59:52;99603.86;;;24.07;49.66
62926;BME280;55732;52.248;-0.844;2023-07-29T12:02:19;99596.46;;;24.17;48.79
62926;BME280;55732;52.248;-0.844;2023-07-29T12:04:47;99598.81;;;24.07;48.76
62926;BME280;55732;52.248;-0.844;2023-07-29T12:07:14;99601.98;;;23.93;48.65
62926;BME280;55732;52.248;-0.844;2023-07-29T12:09:40;99608.44;;;23.73;48.68
62926;BME280;55732;52.248;-0.844;2023-07-29T12:12:07;99614.36;;;23.53;48.82
62926;BME280;55732;52.248;-0.844;2023-07-29T12:14:33;99621.89;;;23.32;49.22
62926;BME280;55732;52.248;-0.844;2023-07-29T12:17:04;99625.27;;;23.09;49.65
62926;BME280;55732;52.248;-0.844;2023-07-29T12:19:38;99631.96;;;22.93;50.24
62926;BME280;55732;52.248;-0.844;2023-07-29T12:22:05;99639.01;;;22.73;50.53
62926;BME280;55732;52.248;-0.844;2023-07-29T12:24:31;99647.48;;;22.50;51.11
62926;BME280;55732;52.248;-0.844;2023-07-29T12:26:57;99648.73;;;22.23;51.58
62926;BME280;55732;52.248;-0.844;2023-07-29T12:29:24;99645.36;;;21.91;51.87
62926;BME280;55732;52.248;-0.844;2023-07-29T12:32:03;99645.94;;;21.65;52.11
62926;BME280;55732;52.248;-0.844;2023-07-29T12:34:30;99641.34;;;21.52;51.93
62926;BME280;55732;52.248;-0.844;2023-07-29T12:36:57;99641.86;;;21.64;51.86
62926;BME280;55732;52.248;-0.844;2023-07-29T12:39:28;99637.45;;;22.08;50.44
62926;BME280;55732;52.248;-0.844;2023-07-29T12:41:56;99624.40;;;22.52;49.54
62926;BME280;55732;52.248;-0.844;2023-07-29T12:44:28;99617.97;;;22.92;48.43
62926;BME280;55732;52.248;-0.844;2023-07-29T12:46:54;99624.92;;;23.22;47.93
62926;BME280;55732;52.248;-0.844;2023-07-29T12:49:20;99627.73;;;23.47;46.74
62926;BME280;55732;52.248;-0.844;2023-07-29T12:51:45;99630.85;;;23.61;46.27
62926;BME280;55732;52.248;-0.844;2023-07-29T12:54:11;99625.17;;;23.73;46.07
62926;BME280;55732;52.248;-0.844;2023-07-29T12:56:36;99629.52;;;23.85;45.37
62926;BME280;55732;52.248;-0.844;2023-07-29T12:59:02;99625.76;;;23.93;44.56
62926;BME280;55732;52.248;-0.844;2023-07-29T13:01:28;99619.73;;;23.94;44.43
62926;BME280;55732;52.248;-0.844;2023-07-29T13:03:54;99617.23;;;23.94;44.59